This is the latest recevied weather packets stored in our database for station/object N0TKN. If no packets are shown the sender has not sent any weather packets the latest 10 day(s).
| Time | Temp. | Humidity | Pressure | Rain* | Wind** | Luminosity | Snow |
|---|---|---|---|---|---|---|---|
| 1778159717 | 10.56° C | 81% | 1016.4 hPa | 0 mm | - | 319 W/m² | - |
| 1778159117 | 9.44° C | 84% | 1016.6 hPa | 0 mm | - | 283 W/m² | - |
| 1778158517 | 8.33° C | 92% | 1016.6 hPa | 0 mm | - | 248 W/m² | - |
| 1778157918 | 7.78° C | 98% | 1016.7 hPa | 0 mm | - | 214 W/m² | - |
| 1778157317 | 7.22° C | 99% | 1016.6 hPa | 0 mm | - | 181 W/m² | - |
| 1778156717 | 6.11° C | 99% | 1016.7 hPa | 0 mm | - | 150 W/m² | - |
| 1778156117 | 5.56° C | 99% | 1016.9 hPa | 0 mm | - | 110 W/m² | - |
| 1778155518 | 4.44° C | 99% | 1017.2 hPa | 0 mm | - | 75 W/m² | - |
| 1778154916 | 4.44° C | 99% | 1017.4 hPa | 0 mm | - | 34 W/m² | - |
| 1778154316 | 4.44° C | 99% | 1017.6 hPa | 0 mm | - | 31 W/m² | - |
| 1778153716 | 4.44° C | 99% | 1017.6 hPa | 0 mm | - | 21 W/m² | - |
| 1778153116 | 4.44° C | 99% | 1017.4 hPa | 0 mm | - | 13 W/m² | - |
| 1778152516 | 4.44° C | 99% | 1017.2 hPa | 0 mm | - | 7 W/m² | - |
| 1778151916 | 5° C | 99% | 1017.3 hPa | 0 mm | - | 3 W/m² | - |
| 1778151316 | 4.44° C | 99% | 1017.2 hPa | 0 mm | - | 1 W/m² | - |
| 1778150716 | 5° C | 99% | 1017.1 hPa | 0 mm | - | 0 W/m² | - |
| 1778150116 | 4.44° C | 99% | 1017.3 hPa | 0 mm | - | 0 W/m² | - |
| 1778149517 | 4.44° C | 99% | 1017.3 hPa | 0 mm | - | 0 W/m² | - |
| 1778148917 | 5° C | 99% | 1017.3 hPa | 0 mm | - | 0 W/m² | - |
| 1778148316 | 5° C | 99% | 1017.2 hPa | 0 mm | - | 0 W/m² | - |
| 1778147717 | 5.56° C | 99% | 1017.2 hPa | 0 mm | - | 0 W/m² | - |
| 1778147117 | 5.56° C | 99% | 1017.2 hPa | 0 mm | - | 0 W/m² | - |
| 1778146517 | 5.56° C | 99% | 1017 hPa | 0 mm | - | 0 W/m² | - |
| 1778145917 | 5.56° C | 99% | 1016.9 hPa | 0 mm | - | 0 W/m² | - |
| 1778145317 | 5.56° C | 99% | 1016.9 hPa | 0 mm | - | 0 W/m² | - |
* Rain latest hour (hover to see other rain measurements)
** Current wind speed in m/s (hover to see current wind gust speed)